Aviation Digital Data Service (ADDS)

Output produced by METARs form (0524 UTC 19 January 2018)
found at http://www.aviationweather.gov/adds/metars/
 
METAR text: KSUS 190454Z 22007KT 10SM CLR 02/M09 A3014 RMK AO2 SLP213 T00171094
Conditions at: KSUS (ST. LOUIS/SPIRIT, MO, US) observed 0454 UTC 19 January 2018
Temperature: 1.7°C (35°F)
Dewpoint: -9.4°C (15°F) [RH = 43%]
Pressure (altimeter): 30.14 inches Hg (1020.7 mb)
[Sea-level pressure: 1021.3 mb]
Winds: from the SW (220 degrees) at 8 MPH (7 knots; 3.6 m/s)
Visibility: 10 or more miles (16+ km)
Ceiling: at least 12,000 feet AGL
Clouds: sky clear below 12,000 feet AGL
Weather: no significant weather observed at this time